Time;durP1;ratioP1;P1;durP2;ratioP2;P2;SDS_P1;SDS_P2;PMS_P1;PMS_P2;Temp;Humidity;BMP_temperature;BMP_pressure;BME280_temperature;BME280_humidity;BME280_pressure;Samples;Min_cycle;Max_cycle;Signal;HPM_P1;HPM_P2
2022/02/17 00:00:06;;;;;;;0.70;0.70;;;13.20;99.90;;;;;;5014806;28;20476;-68
2022/02/17 00:02:32;;;;;;;0.70;0.60;;;13.10;99.90;;;;;;5014736;28;20427;-67
2022/02/17 00:04:58;;;;;;;0.60;0.60;;;13.20;99.90;;;;;;5014583;28;20948;-67
2022/02/17 00:07:23;;;;;;;1.10;1.00;;;13.20;99.90;;;;;;5014635;28;20414;-67
2022/02/17 00:09:48;;;;;;;0.50;0.50;;;13.20;99.90;;;;;;5014621;28;20164;-67
2022/02/17 00:12:14;;;;;;;0.60;0.60;;;13.10;99.90;;;;;;5014393;28;20268;-68
2022/02/17 00:14:39;;;;;;;0.83;0.70;;;13.10;99.90;;;;;;5014402;28;20243;-68
2022/02/17 00:17:05;;;;;;;0.60;0.60;;;12.90;99.90;;;;;;5014556;28;20187;-67
2022/02/17 00:19:30;;;;;;;0.70;0.70;;;12.90;99.90;;;;;;5014511;28;20200;-69
2022/02/17 00:21:56;;;;;;;0.60;0.60;;;12.90;99.90;;;;;;5014186;28;20207;-67
2022/02/17 00:24:21;;;;;;;1.27;0.80;;;12.90;99.90;;;;;;5014496;28;20611;-68
2022/02/17 00:26:47;;;;;;;0.60;0.60;;;12.90;99.90;;;;;;5014385;28;20247;-67
2022/02/17 00:29:12;;;;;;;0.60;0.50;;;12.90;99.90;;;;;;5014416;28;20615;-68
2022/02/17 00:31:39;;;;;;;0.80;0.60;;;12.90;99.90;;;;;;5014297;28;20592;-68
2022/02/17 00:34:04;;;;;;;0.50;0.50;;;12.90;99.90;;;;;;5014318;28;20199;-67
2022/02/17 00:36:30;;;;;;;0.70;0.70;;;12.90;99.90;;;;;;5014580;28;20537;-68
2022/02/17 00:38:56;;;;;;;0.70;0.70;;;12.80;99.90;;;;;;5014474;28;20172;-68
2022/02/17 00:41:22;;;;;;;0.50;0.50;;;12.80;99.90;;;;;;5014615;28;20658;-68
2022/02/17 00:43:47;;;;;;;0.60;0.60;;;12.80;99.90;;;;;;5014321;28;20437;-68
2022/02/17 00:46:13;;;;;;;1.00;0.60;;;12.90;99.90;;;;;;5014133;28;20227;-68
2022/02/17 00:48:38;;;;;;;0.60;0.60;;;12.90;99.90;;;;;;4997102;28;20176;-68
2022/02/17 00:51:04;;;;;;;0.80;0.80;;;12.90;99.90;;;;;;5014091;28;20240;-69
2022/02/17 00:53:30;;;;;;;0.83;0.83;;;12.90;99.90;;;;;;5014131;28;20576;-67
2022/02/17 00:55:55;;;;;;;0.60;0.60;;;12.80;99.90;;;;;;5014586;28;20408;-68
2022/02/17 00:58:21;;;;;;;0.60;0.60;;;12.70;99.90;;;;;;5013956;28;20169;-67
2022/02/17 01:00:46;;;;;;;0.80;0.80;;;12.60;99.90;;;;;;5013838;28;20173;-68
2022/02/17 01:03:12;;;;;;;0.60;0.60;;;12.70;99.90;;;;;;5013650;28;20196;-69
2022/02/17 01:05:37;;;;;;;0.70;0.60;;;12.50;99.90;;;;;;5013424;28;20287;-68
2022/02/17 01:08:03;;;;;;;0.77;0.70;;;12.40;99.90;;;;;;5013506;28;20176;-68
2022/02/17 01:10:29;;;;;;;0.50;0.50;;;12.30;99.90;;;;;;5013470;28;20172;-67
2022/02/17 01:12:55;;;;;;;1.03;0.90;;;10.80;99.90;;;;;;5013300;28;20187;-68
2022/02/17 01:15:21;;;;;;;0.60;0.60;;;9.40;99.90;;;;;;5013286;28;20412;-68
2022/02/17 01:17:46;;;;;;;1.07;0.90;;;8.90;99.90;;;;;;5013373;28;20306;-69
2022/02/17 01:20:12;;;;;;;0.70;0.60;;;8.70;99.90;;;;;;5013383;28;20465;-68
2022/02/17 01:22:38;;;;;;;0.60;0.60;;;8.70;99.90;;;;;;5012885;28;20282;-69
2022/02/17 01:25:04;;;;;;;1.00;0.60;;;8.70;99.90;;;;;;5013177;28;20545;-69
2022/02/17 01:27:31;;;;;;;1.00;0.93;;;8.70;99.90;;;;;;5013176;28;20411;-68
2022/02/17 01:29:57;;;;;;;0.67;0.67;;;8.70;99.90;;;;;;5013134;28;20407;-68
2022/02/17 01:32:22;;;;;;;0.80;0.70;;;8.60;99.90;;;;;;5012966;28;20428;-68
2022/02/17 01:34:48;;;;;;;2.20;1.23;;;8.50;99.90;;;;;;5013041;28;20169;-68
2022/02/17 01:37:14;;;;;;;3.37;0.70;;;8.40;99.90;;;;;;5012972;28;20211;-69
2022/02/17 01:39:40;;;;;;;0.80;0.70;;;8.40;99.90;;;;;;5013098;28;20172;-69
2022/02/17 01:42:11;;;;;;;1.27;1.03;;;8.40;99.90;;;;;;5012903;28;20487;-69
2022/02/17 01:44:36;;;;;;;0.70;0.70;;;8.40;99.90;;;;;;5012724;28;20251;-69
2022/02/17 01:47:08;;;;;;;0.70;0.70;;;8.40;99.90;;;;;;5012240;28;20506;-67
2022/02/17 01:49:33;;;;;;;4.10;1.13;;;8.40;99.90;;;;;;5012756;28;20177;-68
2022/02/17 01:51:59;;;;;;;1.87;0.80;;;8.40;99.90;;;;;;5012683;28;20423;-67
2022/02/17 01:54:24;;;;;;;3.43;0.80;;;8.50;99.90;;;;;;5012523;28;20164;-68
2022/02/17 01:56:51;;;;;;;3.00;1.57;;;8.40;99.90;;;;;;5012551;28;20521;-69
2022/02/17 01:59:16;;;;;;;0.63;0.63;;;8.50;99.90;;;;;;5012541;28;20175;-69
2022/02/17 02:01:42;;;;;;;0.90;0.90;;;8.50;99.90;;;;;;5012519;28;20395;-69
2022/02/17 02:04:07;;;;;;;0.70;0.70;;;8.50;99.90;;;;;;5012470;28;20256;-68
2022/02/17 02:06:33;;;;;;;0.90;0.73;;;8.60;99.90;;;;;;5012362;28;20234;-69
2022/02/17 02:08:58;;;;;;;0.90;0.70;;;8.50;99.90;;;;;;5012363;28;20636;-68
2022/02/17 02:11:24;;;;;;;1.00;0.87;;;8.50;99.90;;;;;;5012221;28;20238;-68
2022/02/17 02:13:50;;;;;;;2.50;1.90;;;8.60;99.90;;;;;;5012297;28;20662;-68
2022/02/17 02:16:15;;;;;;;1.57;0.97;;;8.60;99.90;;;;;;5012331;28;20443;-68
2022/02/17 02:18:41;;;;;;;1.60;0.70;;;8.50;99.90;;;;;;5012284;28;20623;-68
2022/02/17 02:21:06;;;;;;;1.77;0.80;;;8.50;99.90;;;;;;5012174;28;20192;-69
2022/02/17 02:23:33;;;;;;;1.90;1.03;;;8.60;99.90;;;;;;5011889;28;20289;-68
2022/02/17 02:25:59;;;;;;;2.50;0.70;;;8.80;99.90;;;;;;5012095;28;20204;-69
2022/02/17 02:28:31;;;;;;;2.23;1.43;;;8.70;99.90;;;;;;5012273;28;20445;-69
2022/02/17 02:30:57;;;;;;;0.83;0.83;;;8.60;99.90;;;;;;5010857;28;20407;-69
2022/02/17 02:33:24;;;;;;;0.87;0.70;;;8.50;99.90;;;;;;5012023;28;20474;-69
2022/02/17 02:35:50;;;;;;;0.77;0.67;;;8.50;99.90;;;;;;5011924;28;20422;-69
2022/02/17 02:38:16;;;;;;;0.70;0.70;;;8.50;99.90;;;;;;5012061;28;20490;-68
2022/02/17 02:40:42;;;;;;;1.07;0.97;;;8.40;99.90;;;;;;5011972;28;20853;-70
2022/02/17 02:43:08;;;;;;;0.87;0.87;;;8.40;99.90;;;;;;5012067;28;20437;-69
2022/02/17 02:45:34;;;;;;;5.50;1.20;;;8.40;99.90;;;;;;5011784;28;20219;-69
2022/02/17 02:48:07;;;;;;;5.00;2.50;;;8.60;99.90;;;;;;5011939;28;20230;-69
2022/02/17 02:50:33;;;;;;;0.70;0.63;;;8.50;99.90;;;;;;5012023;28;20412;-68
2022/02/17 02:52:59;;;;;;;1.47;0.93;;;8.50;99.90;;;;;;5011717;28;20456;-68
2022/02/17 02:55:25;;;;;;;1.10;1.00;;;8.50;99.90;;;;;;5011759;28;20450;-68
2022/02/17 02:57:51;;;;;;;2.00;0.90;;;8.60;99.90;;;;;;5011171;28;20173;-68
2022/02/17 03:00:16;;;;;;;0.80;0.80;;;8.70;99.90;;;;;;5011517;28;20469;-68
2022/02/17 03:02:43;;;;;;;2.77;1.30;;;8.60;99.90;;;;;;5011675;28;20200;-69
2022/02/17 03:05:09;;;;;;;1.10;1.00;;;8.80;99.90;;;;;;5011630;28;20219;-68
2022/02/17 03:07:35;;;;;;;1.10;1.00;;;9.00;99.90;;;;;;5011934;28;20820;-68
2022/02/17 03:10:01;;;;;;;3.50;1.10;;;8.90;99.90;;;;;;5011672;28;20407;-69
2022/02/17 03:12:27;;;;;;;6.63;1.23;;;8.80;99.90;;;;;;5011910;28;20286;-68
2022/02/17 03:14:53;;;;;;;2.07;1.00;;;8.70;99.90;;;;;;5011596;28;20427;-67
2022/02/17 03:17:18;;;;;;;0.73;0.73;;;8.70;99.90;;;;;;5011741;28;20521;-68
2022/02/17 03:19:44;;;;;;;2.20;1.73;;;8.80;99.90;;;;;;5011664;28;20172;-68
2022/02/17 03:22:09;;;;;;;1.27;1.10;;;9.00;99.90;;;;;;5011313;28;20279;-68
2022/02/17 03:24:35;;;;;;;0.90;0.80;;;9.00;99.90;;;;;;5011371;28;20176;-68
2022/02/17 03:27:00;;;;;;;0.60;0.60;;;9.00;99.90;;;;;;5011563;28;20530;-68
2022/02/17 03:29:25;;;;;;;2.13;1.20;;;8.90;99.90;;;;;;5011630;28;20310;-68
2022/02/17 03:31:51;;;;;;;0.80;0.80;;;9.10;99.90;;;;;;5011793;28;20184;-68
2022/02/17 03:34:16;;;;;;;3.20;1.60;;;9.20;99.90;;;;;;5011800;28;20168;-68
2022/02/17 03:36:42;;;;;;;0.60;0.60;;;9.30;99.90;;;;;;5011747;28;20881;-67
2022/02/17 03:39:07;;;;;;;3.07;1.13;;;9.50;99.90;;;;;;5011355;28;20531;-68
2022/02/17 03:41:33;;;;;;;0.73;0.70;;;9.30;99.90;;;;;;5011449;28;20211;-68
2022/02/17 03:43:58;;;;;;;0.90;0.90;;;9.20;99.90;;;;;;5011389;28;20195;-68
2022/02/17 03:46:24;;;;;;;1.03;1.03;;;9.10;99.90;;;;;;5011283;28;20196;-68
2022/02/17 03:48:49;;;;;;;1.03;0.77;;;9.10;99.90;;;;;;5011386;28;20636;-68
2022/02/17 03:51:15;;;;;;;1.63;0.90;;;9.20;99.90;;;;;;5011393;28;20562;-68
2022/02/17 03:53:40;;;;;;;5.50;1.83;;;9.60;99.90;;;;;;5010992;28;20192;-67
2022/02/17 03:56:05;;;;;;;0.93;0.80;;;9.40;99.90;;;;;;5011227;28;20177;-67
2022/02/17 04:01:15;;;;;;;0.93;0.93;;;9.40;99.90;;;;;;5012188;28;20187;-68
2022/02/17 04:03:40;;;;;;;3.60;1.20;;;9.20;99.90;;;;;;5011629;28;20518;-67
2022/02/17 04:06:06;;;;;;;1.03;0.90;;;9.30;99.90;;;;;;5011479;28;20196;-68
2022/02/17 04:08:31;;;;;;;5.53;1.20;;;9.10;99.90;;;;;;5011558;28;20176;-67
2022/02/17 04:10:57;;;;;;;3.47;1.60;;;9.10;99.90;;;;;;5014617;28;20191;-68
2022/02/17 04:13:22;;;;;;;0.70;0.70;;;9.20;99.90;;;;;;5014761;28;20200;-67
2022/02/17 04:15:48;;;;;;;2.90;1.10;;;9.20;99.90;;;;;;5014836;28;20230;-68
2022/02/17 04:18:13;;;;;;;1.07;0.70;;;9.20;99.90;;;;;;5014759;28;20198;-67
2022/02/17 04:20:39;;;;;;;1.47;1.17;;;9.30;99.90;;;;;;5014631;28;20631;-67
2022/02/17 04:23:04;;;;;;;1.10;0.90;;;9.40;99.90;;;;;;5014482;28;20595;-68
2022/02/17 04:25:30;;;;;;;1.10;1.00;;;9.40;99.90;;;;;;5014553;28;20283;-68
2022/02/17 04:27:55;;;;;;;0.60;0.60;;;9.40;99.90;;;;;;5014542;28;20172;-68
2022/02/17 04:30:21;;;;;;;1.17;0.80;;;9.40;99.90;;;;;;5014657;28;20254;-68
2022/02/17 04:32:46;;;;;;;5.80;1.00;;;9.50;99.90;;;;;;5014176;28;20188;-68
2022/02/17 04:35:12;;;;;;;1.00;1.00;;;9.50;99.90;;;;;;5014117;28;20190;-67
2022/02/17 04:37:37;;;;;;;2.57;1.13;;;9.50;99.90;;;;;;5014078;28;20173;-68
2022/02/17 04:40:03;;;;;;;1.17;1.07;;;8.90;99.90;;;;;;5014115;28;20627;-68
2022/02/17 04:42:29;;;;;;;1.30;1.20;;;8.50;99.90;;;;;;5014204;28;20549;-68
2022/02/17 04:44:54;;;;;;;0.60;0.60;;;8.20;99.90;;;;;;5014044;28;20482;-68
2022/02/17 04:47:20;;;;;;;0.60;0.60;;;7.80;99.90;;;;;;5014197;28;20214;-66
2022/02/17 04:49:48;;;;;;;0.73;0.73;;;7.50;99.90;;;;;;5014104;28;20172;-67
2022/02/17 04:52:14;;;;;;;1.10;0.80;;;7.40;99.90;;;;;;5013775;28;20653;-67
2022/02/17 04:54:39;;;;;;;0.70;0.70;;;7.40;99.90;;;;;;5014116;28;20457;-68
2022/02/17 04:57:06;;;;;;;0.60;0.60;;;7.40;99.90;;;;;;5014242;28;20815;-67
2022/02/17 04:59:32;;;;;;;0.73;0.60;;;7.40;99.90;;;;;;5014350;28;20632;-67
2022/02/17 05:01:57;;;;;;;0.60;0.60;;;7.50;99.90;;;;;;5013828;28;20467;-68
2022/02/17 05:04:23;;;;;;;2.53;0.70;;;7.60;99.90;;;;;;5014082;28;20168;-68
2022/02/17 05:06:48;;;;;;;0.60;0.60;;;7.60;99.90;;;;;;5013495;28;20203;-68
2022/02/17 05:09:14;;;;;;;0.70;0.70;;;7.60;99.90;;;;;;5013657;28;20234;-68
2022/02/17 05:11:39;;;;;;;0.70;0.70;;;7.60;99.90;;;;;;5013620;28;20627;-68
2022/02/17 05:14:05;;;;;;;0.90;0.70;;;7.60;99.90;;;;;;5013566;28;20514;-68
2022/02/17 05:16:32;;;;;;;1.00;1.00;;;7.60;99.90;;;;;;5013500;28;20179;-67
2022/02/17 05:18:58;;;;;;;0.80;0.80;;;7.60;99.90;;;;;;5013569;28;20210;-68
2022/02/17 05:21:23;;;;;;;1.57;1.20;;;7.70;99.90;;;;;;5012456;28;20512;-69
2022/02/17 05:23:49;;;;;;;2.10;1.03;;;7.90;99.90;;;;;;5013173;28;20210;-68
2022/02/17 05:26:14;;;;;;;0.83;0.73;;;7.80;99.90;;;;;;5013111;28;20211;-67
2022/02/17 05:28:40;;;;;;;1.00;0.70;;;7.90;99.90;;;;;;5013315;28;20172;-68
2022/02/17 05:31:05;;;;;;;1.70;0.90;;;7.90;99.90;;;;;;5013141;28;20179;-67
2022/02/17 05:33:31;;;;;;;1.53;0.70;;;7.80;99.90;;;;;;5012922;28;20184;-67
2022/02/17 05:35:57;;;;;;;1.47;1.37;;;7.70;99.90;;;;;;5012854;28;20187;-68
2022/02/17 05:38:22;;;;;;;1.47;1.17;;;7.70;99.90;;;;;;5013110;28;20794;-68
2022/02/17 05:40:48;;;;;;;1.23;0.80;;;7.70;99.90;;;;;;5013089;28;20172;-69
2022/02/17 05:43:14;;;;;;;2.50;1.00;;;7.70;99.90;;;;;;5012753;28;20279;-69
2022/02/17 05:45:39;;;;;;;1.90;1.13;;;7.60;99.90;;;;;;5012787;28;20461;-67
2022/02/17 05:48:05;;;;;;;0.60;0.60;;;7.60;99.90;;;;;;5012774;28;20169;-67
2022/02/17 05:50:31;;;;;;;2.80;1.37;;;7.50;99.90;;;;;;5012929;28;20182;-68
2022/02/17 05:52:56;;;;;;;5.83;2.90;;;7.40;99.90;;;;;;5012637;28;20192;-69
2022/02/17 05:55:22;;;;;;;1.10;1.00;;;7.50;99.90;;;;;;5012532;28;20798;-67
2022/02/17 05:57:47;;;;;;;0.80;0.80;;;7.50;99.90;;;;;;5012728;28;20172;-68
2022/02/17 06:00:13;;;;;;;1.40;1.30;;;7.50;99.90;;;;;;5012650;28;20398;-68
2022/02/17 06:02:41;;;;;;;1.90;1.47;;;7.60;99.90;;;;;;5012395;28;20188;-66
2022/02/17 06:05:07;;;;;;;1.07;1.07;;;7.70;99.90;;;;;;5012326;28;20483;-67
2022/02/17 06:07:33;;;;;;;1.30;1.00;;;7.80;99.90;;;;;;5012337;28;20948;-68
2022/02/17 06:09:58;;;;;;;1.13;1.03;;;8.00;99.90;;;;;;5012502;28;20494;-68
2022/02/17 06:12:24;;;;;;;1.20;0.90;;;8.00;99.90;;;;;;5012691;28;20188;-67
2022/02/17 06:14:50;;;;;;;2.83;1.00;;;8.10;99.90;;;;;;5012657;28;20183;-68
2022/02/17 06:17:16;;;;;;;1.97;1.43;;;8.20;99.90;;;;;;5012591;28;20204;-68
2022/02/17 06:19:42;;;;;;;6.13;1.20;;;8.30;99.90;;;;;;5012494;28;20438;-67
2022/02/17 06:22:08;;;;;;;0.90;0.90;;;8.30;99.90;;;;;;5012926;28;20938;-67
2022/02/17 06:24:33;;;;;;;1.83;1.07;;;8.40;99.90;;;;;;5012904;28;20255;-67
2022/02/17 06:26:59;;;;;;;3.93;0.83;;;8.50;99.90;;;;;;5012786;28;20180;-66
2022/02/17 06:29:26;;;;;;;1.93;1.13;;;8.60;99.90;;;;;;5012902;28;20176;-66
2022/02/17 06:31:52;;;;;;;1.77;1.20;;;8.70;99.90;;;;;;5012606;28;20195;-66
2022/02/17 06:34:17;;;;;;;3.40;0.97;;;8.70;99.90;;;;;;5012345;28;20406;-66
2022/02/17 06:36:44;;;;;;;3.23;1.87;;;8.70;99.90;;;;;;5012481;28;20927;-67
2022/02/17 06:39:10;;;;;;;3.37;0.93;;;8.70;99.90;;;;;;5012369;28;20622;-67
2022/02/17 06:41:35;;;;;;;1.70;1.20;;;8.90;99.90;;;;;;5012334;28;20401;-67
2022/02/17 06:44:01;;;;;;;4.83;1.60;;;8.80;99.90;;;;;;5012358;28;20171;-67
2022/02/17 06:46:26;;;;;;;1.47;1.00;;;8.80;99.90;;;;;;5012126;28;20280;-68
2022/02/17 06:48:52;;;;;;;1.43;0.93;;;8.70;99.90;;;;;;5012071;28;20252;-66
2022/02/17 06:51:17;;;;;;;1.97;0.97;;;8.70;99.90;;;;;;5012270;28;20214;-66
2022/02/17 06:53:43;;;;;;;1.43;1.10;;;8.80;99.90;;;;;;5011885;28;20192;-66
2022/02/17 06:56:08;;;;;;;1.67;1.13;;;8.80;99.90;;;;;;5011648;28;20258;-67
2022/02/17 06:58:34;;;;;;;2.00;0.90;;;8.90;99.90;;;;;;5011711;28;20523;-67
2022/02/17 07:01:00;;;;;;;0.80;0.80;;;8.90;99.90;;;;;;5012058;28;20180;-67
2022/02/17 07:03:26;;;;;;;1.00;1.00;;;8.90;99.90;;;;;;4994081;28;20258;-67
2022/02/17 07:05:52;;;;;;;3.87;1.03;;;8.90;99.90;;;;;;5011821;28;20266;-67
2022/02/17 07:08:17;;;;;;;3.80;1.30;;;8.90;99.90;;;;;;5011830;28;20423;-67
2022/02/17 07:10:55;;;;;;;3.80;1.93;;;9.00;99.90;;;;;;5011883;28;20164;-67
2022/02/17 07:13:26;;;;;;;4.20;1.10;;;9.00;99.90;;;;;;5011705;28;20228;-67
2022/02/17 07:15:53;;;;;;;1.43;1.00;;;9.00;99.90;;;;;;5012106;28;20490;-66
2022/02/17 07:18:19;;;;;;;6.17;1.50;;;9.10;99.90;;;;;;5013224;28;20563;-67
2022/02/17 07:20:46;;;;;;;1.10;1.00;;;9.20;99.90;;;;;;5011837;28;20451;-67
2022/02/17 07:23:14;;;;;;;2.43;1.80;;;9.20;99.90;;;;;;5011823;28;20443;-67
2022/02/17 07:25:43;;;;;;;6.40;1.30;;;9.30;99.90;;;;;;5011937;28;20458;-68
2022/02/17 07:28:09;;;;;;;0.93;0.90;;;9.20;99.90;;;;;;5011627;28;20514;-66
2022/02/17 07:30:35;;;;;;;7.10;1.40;;;9.30;99.90;;;;;;5011954;28;20969;-66
2022/02/17 07:33:01;;;;;;;2.60;1.27;;;9.40;99.90;;;;;;5011789;28;20452;-67
2022/02/17 07:35:26;;;;;;;2.77;1.00;;;9.60;99.90;;;;;;5011794;28;20451;-65
2022/02/17 07:37:52;;;;;;;2.60;1.00;;;9.80;99.90;;;;;;5012354;28;20188;-66
2022/02/17 07:40:18;;;;;;;1.77;1.40;;;9.70;99.90;;;;;;5013310;28;20177;-67
2022/02/17 07:42:45;;;;;;;3.67;1.00;;;9.70;99.90;;;;;;5012344;28;20228;-66
2022/02/17 07:45:12;;;;;;;2.60;1.07;;;9.70;99.90;;;;;;5015243;28;20223;-67
2022/02/17 07:47:42;;;;;;;0.73;0.73;;;9.80;99.90;;;;;;5015368;28;20411;-66
2022/02/17 07:50:07;;;;;;;2.80;2.40;;;10.20;99.90;;;;;;5014950;28;20474;-67
2022/02/17 07:52:33;;;;;;;2.03;1.30;;;10.30;99.90;;;;;;5014698;28;20431;-66
2022/02/17 07:54:58;;;;;;;2.80;1.53;;;10.00;99.90;;;;;;5014788;28;20407;-66
2022/02/17 07:57:24;;;;;;;2.57;1.07;;;10.00;99.90;;;;;;5014673;28;20190;-66
2022/02/17 07:59:49;;;;;;;3.17;1.00;;;10.10;99.90;;;;;;5014819;28;20172;-67
2022/02/17 08:02:15;;;;;;;5.00;1.23;;;10.20;99.90;;;;;;5014571;28;20462;-66
2022/02/17 08:04:40;;;;;;;6.50;1.50;;;10.00;99.90;;;;;;5014735;28;20251;-66
2022/02/17 08:07:06;;;;;;;1.37;1.23;;;9.90;99.90;;;;;;5014588;28;20179;-66
2022/02/17 08:09:32;;;;;;;1.03;0.80;;;9.90;99.90;;;;;;5014664;28;20211;-66
2022/02/17 08:11:57;;;;;;;1.93;1.10;;;9.90;99.90;;;;;;5014433;28;20194;-65
2022/02/17 08:14:23;;;;;;;2.90;1.83;;;9.80;99.90;;;;;;5014327;28;20594;-66
2022/02/17 08:16:48;;;;;;;1.43;1.33;;;9.80;99.90;;;;;;5014485;28;20204;-65
2022/02/17 08:19:14;;;;;;;3.57;1.30;;;9.80;99.90;;;;;;5014656;28;20212;-65
2022/02/17 08:21:41;;;;;;;0.90;0.90;;;9.80;99.90;;;;;;5014284;28;20181;-66
2022/02/17 08:24:06;;;;;;;1.23;0.80;;;9.80;99.90;;;;;;5014945;28;20738;-66
2022/02/17 08:26:32;;;;;;;1.40;0.80;;;9.80;99.90;;;;;;5014211;28;20684;-66
2022/02/17 08:28:59;;;;;;;2.77;1.03;;;9.70;99.90;;;;;;5014289;28;20173;-65
2022/02/17 08:31:26;;;;;;;1.03;0.80;;;9.70;99.90;;;;;;5014399;28;20194;-66
2022/02/17 08:33:51;;;;;;;0.70;0.70;;;9.80;99.90;;;;;;5014415;28;20840;-66
2022/02/17 08:36:18;;;;;;;2.10;0.80;;;9.70;99.90;;;;;;4996447;28;20444;-66
2022/02/17 08:38:43;;;;;;;2.67;0.70;;;9.70;99.90;;;;;;5014410;28;20177;-67
2022/02/17 08:41:10;;;;;;;2.67;1.07;;;9.80;99.90;;;;;;5014386;28;20485;-66
2022/02/17 08:43:35;;;;;;;0.80;0.77;;;9.80;99.90;;;;;;5014357;28;20216;-67
2022/02/17 08:46:02;;;;;;;1.20;0.80;;;9.80;99.90;;;;;;5014312;28;20943;-67
2022/02/17 08:48:28;;;;;;;1.20;0.90;;;9.80;99.90;;;;;;4996770;28;20260;-66
2022/02/17 08:50:53;;;;;;;1.37;0.90;;;9.80;99.90;;;;;;5014073;28;20450;-66
2022/02/17 08:53:19;;;;;;;1.80;0.80;;;9.80;99.90;;;;;;5014166;28;20436;-66
2022/02/17 08:55:45;;;;;;;1.30;0.90;;;9.80;99.90;;;;;;5013414;28;20667;-66
2022/02/17 08:58:11;;;;;;;0.97;0.97;;;9.80;99.90;;;;;;5014253;28;20535;-67
2022/02/17 09:00:36;;;;;;;4.50;1.90;;;9.80;99.90;;;;;;5015409;28;20219;-67
2022/02/17 09:03:04;;;;;;;2.90;0.90;;;9.80;99.90;;;;;;5014949;28;20751;-66
2022/02/17 09:05:31;;;;;;;1.53;0.70;;;9.80;99.90;;;;;;5013363;28;20212;-66
2022/02/17 09:07:57;;;;;;;8.30;2.00;;;9.80;99.90;;;;;;5013770;28;20459;-66
2022/02/17 09:10:23;;;;;;;1.00;0.80;;;9.80;99.90;;;;;;5013568;28;20921;-67
2022/02/17 09:12:49;;;;;;;1.30;0.77;;;9.90;99.90;;;;;;5013460;28;20232;-67
2022/02/17 09:15:14;;;;;;;2.53;0.90;;;9.80;99.90;;;;;;5013365;28;20177;-66
2022/02/17 09:17:40;;;;;;;2.20;0.90;;;9.80;99.90;;;;;;5013621;28;20173;-66
2022/02/17 09:20:06;;;;;;;1.47;1.10;;;9.80;99.90;;;;;;5013679;28;20175;-66
2022/02/17 09:22:31;;;;;;;5.63;1.50;;;9.80;99.90;;;;;;5013127;28;20220;-66
2022/02/17 09:24:58;;;;;;;5.53;1.23;;;9.80;99.90;;;;;;5013191;28;20444;-66
2022/02/17 09:27:23;;;;;;;1.63;1.13;;;9.80;99.90;;;;;;5013843;28;20429;-67
2022/02/17 09:29:49;;;;;;;1.30;0.93;;;9.90;99.90;;;;;;5013998;28;20165;-67
2022/02/17 09:32:15;;;;;;;2.17;1.00;;;9.80;99.90;;;;;;5013551;28;20204;-67
2022/02/17 09:34:41;;;;;;;0.97;0.70;;;9.80;99.90;;;;;;5013742;28;20683;-67
2022/02/17 09:37:06;;;;;;;1.23;0.80;;;9.80;99.90;;;;;;5013902;28;20215;-67
2022/02/17 09:39:33;;;;;;;1.57;1.17;;;9.80;99.90;;;;;;5013611;28;20410;-67
2022/02/17 09:42:01;;;;;;;0.93;0.70;;;9.80;99.90;;;;;;5013731;28;20194;-67
2022/02/17 09:44:27;;;;;;;0.60;0.60;;;9.80;99.90;;;;;;5013291;28;20409;-67
2022/02/17 09:46:53;;;;;;;1.77;0.83;;;9.80;99.90;;;;;;5013215;28;20495;-67
2022/02/17 09:49:20;;;;;;;3.47;0.80;;;9.80;99.90;;;;;;5013461;28;20922;-67
2022/02/17 09:51:48;;;;;;;1.27;0.80;;;9.70;99.90;;;;;;5012978;28;20796;-66
2022/02/17 09:54:16;;;;;;;2.20;0.97;;;9.60;99.90;;;;;;5013085;28;20506;-68
2022/02/17 09:56:42;;;;;;;2.17;1.30;;;9.50;99.90;;;;;;5013135;28;20423;-66
2022/02/17 09:59:08;;;;;;;2.50;1.10;;;9.50;99.90;;;;;;5012756;28;20409;-67
2022/02/17 10:01:34;;;;;;;1.63;1.00;;;9.30;99.90;;;;;;5012823;28;20468;-66
2022/02/17 10:04:23;;;;;;;0.70;0.70;;;9.10;99.90;;;;;;5012620;28;20172;-66
2022/02/17 10:06:55;;;;;;;8.20;1.60;;;8.90;99.90;;;;;;5012304;28;20196;-66
2022/02/17 10:09:23;;;;;;;0.60;0.60;;;8.80;99.90;;;;;;5012439;28;20404;-65
2022/02/17 10:11:51;;;;;;;1.53;0.70;;;8.90;99.90;;;;;;5012423;28;20835;-66
2022/02/17 10:14:18;;;;;;;1.37;0.97;;;9.00;99.90;;;;;;5012476;28;20412;-67
2022/02/17 10:17:10;;;;;;;2.00;1.47;;;9.00;99.90;;;;;;5012653;28;20925;-67
2022/02/17 10:19:41;;;;;;;0.60;0.60;;;9.00;99.90;;;;;;5012763;28;20442;-67
2022/02/17 10:22:15;;;;;;;0.60;0.60;;;9.00;99.90;;;;;;5012296;28;20443;-67
2022/02/17 10:24:45;;;;;;;1.40;1.03;;;9.10;99.90;;;;;;5012118;28;20918;-67
2022/02/17 10:27:16;;;;;;;1.30;0.93;;;9.10;99.90;;;;;;5012307;28;20418;-67
2022/02/17 10:30:12;;;;;;;0.77;0.73;;;9.10;99.90;;;;;;5012552;28;20415;-67
2022/02/17 10:32:56;;;;;;;3.37;1.23;;;9.10;99.90;;;;;;5012389;28;20422;-66
2022/02/17 10:35:22;;;;;;;1.23;0.80;;;9.10;99.90;;;;;;5012139;28;20951;-67
2022/02/17 10:37:49;;;;;;;1.90;1.30;;;9.10;99.90;;;;;;5012172;28;20399;-66
2022/02/17 10:40:22;;;;;;;2.90;0.97;;;9.10;99.90;;;;;;5011932;28;20493;-67
2022/02/17 10:43:10;;;;;;;0.70;0.70;;;9.10;99.90;;;;;;5011990;28;20510;-67
2022/02/17 10:45:36;;;;;;;1.87;1.20;;;9.20;99.90;;;;;;5011853;28;20864;-66
2022/02/17 10:48:21;;;;;;;3.03;1.10;;;9.20;99.90;;;;;;5012069;28;20772;-67
2022/02/17 10:51:05;;;;;;;2.10;1.03;;;9.20;99.90;;;;;;5011680;28;20503;-67
2022/02/17 10:53:31;;;;;;;0.80;0.70;;;9.30;99.90;;;;;;5011808;28;20474;-68
2022/02/17 10:56:00;;;;;;;0.90;0.60;;;9.20;99.90;;;;;;5012053;28;20443;-69
2022/02/17 10:58:30;;;;;;;1.73;0.80;;;9.10;99.90;;;;;;5011789;28;20810;-68
2022/02/17 11:00:57;;;;;;;0.90;0.77;;;9.00;99.90;;;;;;5011735;28;20407;-68
2022/02/17 11:03:24;;;;;;;0.80;0.80;;;9.00;99.90;;;;;;5011786;28;20441;-66
2022/02/17 11:05:50;;;;;;;3.17;0.97;;;9.10;99.90;;;;;;5011669;28;20779;-66
2022/02/17 11:08:16;;;;;;;2.07;1.17;;;9.10;99.90;;;;;;5011797;28;20542;-67
2022/02/17 11:10:43;;;;;;;4.70;1.37;;;9.20;99.90;;;;;;5011720;28;20499;-68
2022/02/17 11:13:12;;;;;;;1.33;1.00;;;9.10;99.90;;;;;;5011377;28;20453;-67
2022/02/17 11:15:39;;;;;;;1.33;1.23;;;9.20;99.90;;;;;;5011554;28;20439;-67
2022/02/17 11:18:05;;;;;;;1.93;0.80;;;9.20;99.90;;;;;;5011852;28;20418;-67
2022/02/17 11:20:31;;;;;;;2.40;1.07;;;9.20;99.90;;;;;;5014226;28;20408;-68
2022/02/17 11:22:56;;;;;;;5.53;0.90;;;9.10;99.90;;;;;;5015596;28;20461;-67
2022/02/17 11:25:39;;;;;;;1.17;0.80;;;9.10;99.90;;;;;;5015415;28;20973;-67
2022/02/17 11:28:12;;;;;;;0.70;0.70;;;9.00;99.90;;;;;;5015593;28;20177;-67
2022/02/17 11:30:40;;;;;;;3.43;1.10;;;9.00;99.90;;;;;;5015418;28;20407;-67
2022/02/17 11:33:36;;;;;;;1.00;0.80;;;9.10;99.90;;;;;;5015466;28;20459;-67
2022/02/17 11:36:07;;;;;;;1.17;0.83;;;9.20;99.90;;;;;;5020049;28;20434;-67
2022/02/17 11:38:35;;;;;;;3.77;0.87;;;9.30;99.90;;;;;;5018584;28;20542;-67
2022/02/17 11:41:13;;;;;;;1.60;1.00;;;9.20;99.90;;;;;;5016756;28;20432;-66
2022/02/17 11:43:43;;;;;;;4.73;1.13;;;9.10;99.90;;;;;;5015089;28;20538;-67
2022/02/17 11:46:10;;;;;;;0.80;0.80;;;9.10;99.90;;;;;;5014959;28;20538;-67
2022/02/17 11:48:44;;;;;;;1.27;0.90;;;9.10;99.90;;;;;;5015084;28;20400;-67
2022/02/17 11:51:23;;;;;;;1.07;0.70;;;9.00;99.90;;;;;;5015197;28;20477;-68
2022/02/17 11:53:50;;;;;;;3.87;1.60;;;8.90;99.90;;;;;;5015196;28;20949;-67
2022/02/17 11:56:15;;;;;;;0.70;0.70;;;8.90;99.90;;;;;;5014994;28;20411;-67
2022/02/17 11:58:41;;;;;;;0.80;0.80;;;8.90;99.90;;;;;;5015059;28;20410;-67
2022/02/17 12:01:27;;;;;;;0.60;0.60;;;8.90;99.90;;;;;;5014905;28;20168;-68
2022/02/17 12:04:14;;;;;;;0.70;0.70;;;9.00;99.90;;;;;;5015012;28;20552;-68
2022/02/17 12:06:57;;;;;;;1.07;0.90;;;8.90;99.90;;;;;;4995208;28;20467;-68
2022/02/17 12:09:44;;;;;;;0.80;0.80;;;8.90;99.90;;;;;;4995305;28;20837;-66
2022/02/17 12:12:09;;;;;;;2.77;0.70;;;8.90;99.90;;;;;;4995201;28;20459;-67
2022/02/17 12:14:37;;;;;;;2.40;1.00;;;8.90;99.90;;;;;;4994987;28;20400;-67
2022/02/17 12:17:04;;;;;;;0.70;0.70;;;8.70;99.90;;;;;;4995097;28;20185;-68
2022/02/17 12:19:34;;;;;;;2.20;0.87;;;8.70;99.90;;;;;;4995227;28;20404;-68
2022/02/17 12:22:07;;;;;;;2.20;0.80;;;8.80;99.90;;;;;;4994600;28;20506;-67
2022/02/17 12:24:33;;;;;;;0.83;0.83;;;8.90;99.90;;;;;;5029369;22;20470;-71
2022/02/17 12:26:59;;;;;;;1.57;1.47;;;8.90;99.90;;;;;;5014693;28;21032;-71
2022/02/17 12:29:30;;;;;;;1.23;0.90;;;8.90;99.90;;;;;;5014743;28;20187;-71
2022/02/17 12:31:57;;;;;;;0.70;0.70;;;8.90;99.90;;;;;;5014314;28;20252;-71
2022/02/17 12:34:24;;;;;;;1.00;0.70;;;8.90;99.90;;;;;;5014527;28;20759;-70
2022/02/17 12:36:50;;;;;;;1.33;1.13;;;8.80;99.90;;;;;;5014463;28;20444;-70
2022/02/17 12:39:16;;;;;;;0.97;0.87;;;8.80;99.90;;;;;;5014543;28;20443;-73
2022/02/17 12:42:02;;;;;;;1.57;1.40;;;8.80;99.90;;;;;;5014456;28;20450;-71
2022/02/17 12:44:35;;;;;;;0.70;0.67;;;8.60;99.90;;;;;;5014541;28;20210;-70
2022/02/17 12:47:02;;;;;;;0.90;0.70;;;8.50;99.90;;;;;;5015336;28;20831;-71
2022/02/17 12:49:29;;;;;;;1.83;0.87;;;8.30;99.90;;;;;;5014169;28;20843;-71
2022/02/17 12:52:07;;;;;;;0.93;0.80;;;8.30;99.90;;;;;;5014771;28;20462;-72
2022/02/17 12:54:33;;;;;;;1.40;0.77;;;8.30;99.90;;;;;;5014557;28;20845;-71
2022/02/17 12:57:14;;;;;;;0.77;0.67;;;8.30;99.90;;;;;;5014529;28;20419;-71